Time;durP1;ratioP1;P1;durP2;ratioP2;P2;SDS_P1;SDS_P2;PMS_P1;PMS_P2;Temp;Humidity;BMP_temperature;BMP_pressure;BME280_temperature;BME280_humidity;BME280_pressure;Samples;Min_cycle;Max_cycle;Signal;HPM_P1;HPM_P2
2022/11/07 00:01:48;;;;;;;;;;;;;;;14.55;78.72;100014.72;5110956;27;20317;-89
2022/11/07 00:04:15;;;;;;;;;;;;;;;14.67;78.19;100017.97;5109717;28;19916;-90
2022/11/07 00:06:41;;;;;;;;;;;;;;;14.51;78.46;100009.50;5108476;28;19919;-88
2022/11/07 00:09:06;;;;;;;;;;;;;;;14.58;78.61;100009.31;5105569;28;20381;-88
2022/11/07 00:11:32;;;;;;;;;;;;;;;14.43;78.45;100008.81;5109630;28;19969;-89
2022/11/07 00:13:57;;;;;;;;;;;;;;;14.37;78.45;100003.69;5109143;28;20305;-87
2022/11/07 00:16:22;;;;;;;;;;;;;;;14.50;78.11;100012.19;5108213;28;20297;-86
2022/11/07 00:18:48;;;;;;;;;;;;;;;14.49;77.69;100015.78;5116608;27;19915;-87
2022/11/07 00:21:13;;;;;;;;;;;;;;;14.44;78.07;100010.59;5109219;27;19920;-86
2022/11/07 00:23:39;;;;;;;;;;;;;;;14.36;78.42;100014.34;5105833;27;20386;-85
2022/11/07 00:26:09;;;;;;;;;;;;;;;14.40;77.32;100010.69;5088575;28;20393;-85
2022/11/07 00:28:35;;;;;;;;;;;;;;;14.42;77.64;100009.72;5093839;28;20389;-86
2022/11/07 00:31:01;;;;;;;;;;;;;;;14.42;77.77;100012.38;5127473;27;19915;-86
2022/11/07 00:33:26;;;;;;;;;;;;;;;14.25;77.47;100011.94;5129792;27;20030;-86
2022/11/07 00:35:51;;;;;;;;;;;;;;;14.09;77.92;100012.34;5129427;27;20372;-86
2022/11/07 00:38:17;;;;;;;;;;;;;;;14.05;77.89;100008.00;5125883;27;20365;-86
2022/11/07 00:40:42;;;;;;;;;;;;;;;14.00;77.77;100017.00;5116452;27;19916;-86
2022/11/07 00:43:08;;;;;;;;;;;;;;;13.98;78.48;100011.72;5109317;28;19915;-86
2022/11/07 00:45:33;;;;;;;;;;;;;;;14.01;77.55;100022.25;5115116;27;20042;-86
2022/11/07 00:47:58;;;;;;;;;;;;;;;13.91;78.21;100010.13;5127447;27;20403;-86
2022/11/07 00:50:24;;;;;;;;;;;;;;;13.91;78.44;100012.78;5129342;27;19915;-86
2022/11/07 00:52:49;;;;;;;;;;;;;;;13.94;78.43;100013.56;5127610;27;20051;-85
2022/11/07 00:55:14;;;;;;;;;;;;;;;13.95;78.94;100014.44;5128096;27;19919;-86
2022/11/07 00:57:39;;;;;;;;;;;;;;;13.89;79.33;100014.59;5129076;27;20462;-86
2022/11/07 01:00:07;;;;;;;;;;;;;;;13.96;78.47;100021.47;5129040;27;19911;-86
2022/11/07 01:02:32;;;;;;;;;;;;;;;14.03;78.85;100019.56;5129313;27;20010;-86
2022/11/07 01:05:09;;;;;;;;;;;;;;;13.94;80.02;100020.66;5128996;27;20002;-86
2022/11/07 01:07:35;;;;;;;;;;;;;;;14.04;79.86;100026.59;5099885;28;19919;-87
2022/11/07 01:10:01;;;;;;;;;;;;;;;14.05;80.23;100021.25;5092516;28;19916;-86
2022/11/07 01:12:26;;;;;;;;;;;;;;;14.07;80.48;100021.22;5087919;28;20397;-87
2022/11/07 01:14:53;;;;;;;;;;;;;;;14.23;80.13;100025.25;5087677;28;19931;-86
2022/11/07 01:17:18;;;;;;;;;;;;;;;14.23;79.58;100022.59;5108257;28;19919;-87
2022/11/07 01:19:43;;;;;;;;;;;;;;;14.19;80.06;100018.28;5108288;28;19912;-88
2022/11/07 01:22:08;;;;;;;;;;;;;;;14.21;80.14;100019.13;5107870;28;19924;-87
2022/11/07 01:24:34;;;;;;;;;;;;;;;14.28;80.03;100020.69;5108784;28;20327;-88
2022/11/07 01:26:59;;;;;;;;;;;;;;;14.31;80.20;100017.97;5108045;27;19971;-88
2022/11/07 01:29:24;;;;;;;;;;;;;;;14.38;79.79;100013.41;5107872;28;19911;-91
2022/11/07 01:31:50;;;;;;;;;;;;;;;14.37;78.99;100013.44;5125892;27;19915;-88
2022/11/07 01:34:16;;;;;;;;;;;;;;;14.38;79.28;100016.06;5128361;27;20392;-89
2022/11/07 01:36:42;;;;;;;;;;;;;;;14.41;79.28;100010.66;5126472;27;19915;-88
2022/11/07 01:39:07;;;;;;;;;;;;;;;14.55;78.82;100017.38;5129024;27;19918;-88
2022/11/07 01:41:34;;;;;;;;;;;;;;;14.58;78.70;100019.94;5126205;27;19951;-87
2022/11/07 01:44:01;;;;;;;;;;;;;;;14.57;78.10;100020.88;5119269;27;19989;-87
2022/11/07 01:46:28;;;;;;;;;;;;;;;14.56;78.02;100016.47;5108083;27;19907;-87
2022/11/07 01:48:56;;;;;;;;;;;;;;;14.40;79.03;100013.34;5108915;27;19947;-89
2022/11/07 01:51:22;;;;;;;;;;;;;;;14.30;79.17;100018.91;5116133;27;19921;-88
2022/11/07 01:53:48;;;;;;;;;;;;;;;14.34;78.97;100006.41;5128025;27;20365;-86
2022/11/07 01:56:15;;;;;;;;;;;;;;;14.28;78.94;100014.53;5128217;27;19922;-87
2022/11/07 01:58:41;;;;;;;;;;;;;;;14.26;79.51;100017.22;5128351;27;19914;-86
2022/11/07 02:01:07;;;;;;;;;;;;;;;14.37;79.27;100013.44;5128137;27;20388;-88
2022/11/07 02:03:33;;;;;;;;;;;;;;;14.19;79.43;100018.28;5127464;27;19917;-87
2022/11/07 02:06:01;;;;;;;;;;;;;;;13.98;81.53;100022.34;5122319;27;20014;-89
2022/11/07 02:08:28;;;;;;;;;;;;;;;14.04;81.92;100030.16;5107883;28;19922;-89
2022/11/07 02:10:55;;;;;;;;;;;;;;;14.23;80.75;100024.41;5108449;28;19916;-88
2022/11/07 02:13:25;;;;;;;;;;;;;;;14.27;80.37;100023.38;5107505;28;19916;-88
2022/11/07 02:15:50;;;;;;;;;;;;;;;14.42;80.50;100023.00;5107652;28;19911;-88
2022/11/07 02:18:16;;;;;;;;;;;;;;;14.40;80.16;100022.19;5107896;28;19922;-87
2022/11/07 02:20:42;;;;;;;;;;;;;;;14.36;80.62;100023.16;5106884;28;19926;-87
2022/11/07 02:23:10;;;;;;;;;;;;;;;14.44;79.88;100018.53;5111106;28;19911;-86
2022/11/07 02:25:36;;;;;;;;;;;;;;;14.40;80.72;100026.63;5111448;28;19966;-86
2022/11/07 02:28:03;;;;;;;;;;;;;;;14.43;80.79;100027.41;5111464;28;19981;-86
2022/11/07 02:30:30;;;;;;;;;;;;;;;14.43;80.26;100030.06;5111084;28;19911;-85
2022/11/07 02:32:55;;;;;;;;;;;;;;;14.49;79.92;100029.91;5111355;28;19919;-87
2022/11/07 02:35:33;;;;;;;;;;;;;;;14.55;79.77;100028.00;5112220;27;19926;-86
2022/11/07 02:37:59;;;;;;;;;;;;;;;14.53;79.75;100029.81;5111490;28;19915;-86
2022/11/07 02:40:25;;;;;;;;;;;;;;;14.54;79.55;100034.22;5112082;28;20285;-86
2022/11/07 02:42:50;;;;;;;;;;;;;;;14.53;79.03;100038.66;5111048;28;19955;-86
2022/11/07 02:45:23;;;;;;;;;;;;;;;14.51;79.25;100038.69;5110817;27;19961;-86
2022/11/07 02:47:48;;;;;;;;;;;;;;;14.43;79.60;100047.78;5111057;28;19915;-86
2022/11/07 02:50:14;;;;;;;;;;;;;;;14.46;80.14;100047.69;5111286;28;19921;-86
2022/11/07 02:52:40;;;;;;;;;;;;;;;14.58;79.55;100049.16;5111487;28;19928;-86
2022/11/07 02:55:06;;;;;;;;;;;;;;;14.53;79.93;100045.75;5111030;28;20430;-85
2022/11/07 02:57:32;;;;;;;;;;;;;;;14.55;79.95;100051.88;5110917;28;19945;-86
2022/11/07 02:59:57;;;;;;;;;;;;;;;14.61;79.77;100050.00;5111231;28;20408;-86
2022/11/07 03:02:23;;;;;;;;;;;;;;;14.50;79.59;100052.91;5110874;28;19972;-86
2022/11/07 03:04:48;;;;;;;;;;;;;;;14.50;79.34;100054.66;5111567;28;19919;-86
2022/11/07 03:07:14;;;;;;;;;;;;;;;14.55;79.66;100049.22;5110754;27;20317;-84
2022/11/07 03:09:39;;;;;;;;;;;;;;;14.53;79.85;100059.88;5111134;28;19919;-84
2022/11/07 03:12:05;;;;;;;;;;;;;;;14.58;79.39;100058.00;5110854;28;19916;-85
2022/11/07 03:14:30;;;;;;;;;;;;;;;14.68;78.75;100053.34;5110901;27;19915;-86
2022/11/07 03:16:55;;;;;;;;;;;;;;;14.60;79.04;100050.00;5110376;28;19915;-86
2022/11/07 03:19:20;;;;;;;;;;;;;;;14.54;78.94;100045.72;5110525;28;20024;-86
2022/11/07 03:21:48;;;;;;;;;;;;;;;14.47;79.41;100052.97;5110822;28;19942;-85
2022/11/07 03:24:13;;;;;;;;;;;;;;;14.52;79.54;100052.84;5110388;27;19920;-85
2022/11/07 03:26:38;;;;;;;;;;;;;;;14.54;79.06;100053.69;5110433;28;19915;-85
2022/11/07 03:29:05;;;;;;;;;;;;;;;14.61;78.66;100054.41;5110679;28;19911;-86
2022/11/07 03:31:30;;;;;;;;;;;;;;;14.51;78.75;100061.72;5110304;28;19931;-86
2022/11/07 03:33:55;;;;;;;;;;;;;;;14.52;78.48;100060.81;5099843;27;19924;-84
2022/11/07 03:36:20;;;;;;;;;;;;;;;14.42;78.65;100054.84;5110599;27;19926;-85
2022/11/07 03:38:46;;;;;;;;;;;;;;;14.42;78.12;100056.66;5109954;28;19915;-85
2022/11/07 03:41:15;;;;;;;;;;;;;;;14.46;77.79;100056.53;5110107;28;19966;-85
2022/11/07 03:43:41;;;;;;;;;;;;;;;14.40;77.81;100054.03;5110391;28;19929;-84
2022/11/07 03:46:06;;;;;;;;;;;;;;;14.32;78.80;100051.56;5109955;28;20043;-85
2022/11/07 03:48:31;;;;;;;;;;;;;;;14.39;78.70;100054.06;5110272;28;19938;-85
2022/11/07 03:50:57;;;;;;;;;;;;;;;14.55;77.44;100051.88;5116924;27;19966;-85
2022/11/07 03:53:22;;;;;;;;;;;;;;;14.31;77.79;100054.25;5130418;27;20389;-86
2022/11/07 03:55:47;;;;;;;;;;;;;;;14.16;78.37;100050.19;5130564;27;19915;-84
2022/11/07 03:58:13;;;;;;;;;;;;;;;14.10;79.08;100048.56;5130198;27;19915;-84
2022/11/07 04:00:38;;;;;;;;;;;;;;;14.06;78.52;100049.53;5124816;27;19977;-84
2022/11/07 04:03:03;;;;;;;;;;;;;;;13.86;78.49;100051.78;5110133;28;19918;-84
2022/11/07 04:05:29;;;;;;;;;;;;;;;13.86;78.88;100051.78;5110006;28;19930;-85
2022/11/07 04:07:54;;;;;;;;;;;;;;;13.86;77.91;100052.66;5110037;27;19926;-86
2022/11/07 04:10:19;;;;;;;;;;;;;;;13.70;78.99;100052.13;5110223;27;19920;-87
2022/11/07 04:18:13;;;;;;;;;;;;;;;13.76;79.34;100054.66;5130258;27;20018;-86
2022/11/07 04:20:38;;;;;;;;;;;;;;;13.84;79.14;100065.09;5129552;27;20001;-86
2022/11/07 04:23:03;;;;;;;;;;;;;;;13.86;79.29;100060.59;5116051;27;19920;-85
2022/11/07 04:28:15;;;;;;;;;;;;;;;13.79;79.29;100066.94;5088831;28;19919;-88
2022/11/07 04:30:40;;;;;;;;;;;;;;;13.87;79.61;100074.72;5093229;28;19923;-88
2022/11/07 04:33:06;;;;;;;;;;;;;;;13.90;79.47;100066.72;5110073;28;20390;-86
2022/11/07 04:35:32;;;;;;;;;;;;;;;13.87;79.36;100065.00;5109216;28;19923;-86
2022/11/07 04:37:58;;;;;;;;;;;;;;;13.87;79.69;100069.44;5109441;28;19916;-87
2022/11/07 04:40:23;;;;;;;;;;;;;;;13.86;80.12;100070.34;5097284;27;19916;-88
2022/11/07 04:42:49;;;;;;;;;;;;;;;13.86;80.44;100076.53;5129675;27;19911;-86
2022/11/07 04:45:14;;;;;;;;;;;;;;;13.73;80.59;100075.03;5131928;27;20038;-87
2022/11/07 04:47:39;;;;;;;;;;;;;;;13.76;80.89;100073.22;5130994;27;19926;-88
2022/11/07 04:50:06;;;;;;;;;;;;;;;13.92;80.04;100078.16;5131880;27;19911;-87
2022/11/07 04:52:31;;;;;;;;;;;;;;;13.73;81.02;100075.03;5099135;27;20559;-85
2022/11/07 04:54:56;;;;;;;;;;;;;;;13.94;80.84;100068.38;5107803;28;19963;-82
2022/11/07 04:57:22;;;;;;;;;;;;;;;14.00;79.60;100070.91;5133369;28;19899;-90
2022/11/07 04:59:47;;;;;;;;;;;;;;;13.57;81.81;100072.72;5134719;27;19936;-85
2022/11/07 05:02:12;;;;;;;;;;;;;;;13.90;80.01;100080.84;5109301;28;19919;-88
2022/11/07 05:04:38;;;;;;;;;;;;;;;13.93;79.31;100087.84;5108300;27;19963;-88
2022/11/07 05:07:04;;;;;;;;;;;;;;;13.78;80.30;100083.78;5103570;27;20286;-88
2022/11/07 05:09:29;;;;;;;;;;;;;;;13.81;80.54;100078.41;5119716;27;20060;-89
2022/11/07 05:11:55;;;;;;;;;;;;;;;13.83;79.95;100081.88;5128756;27;19915;-91
2022/11/07 05:14:20;;;;;;;;;;;;;;;13.91;79.46;100081.72;5114096;27;19920;-90
2022/11/07 05:16:45;;;;;;;;;;;;;;;13.95;79.66;100086.06;5102184;27;19916;-89
2022/11/07 05:19:15;;;;;;;;;;;;;;;13.92;79.16;100089.63;5090984;28;19920;-89
2022/11/07 05:21:40;;;;;;;;;;;;;;;13.95;78.79;100094.88;5101453;27;19919;-88
2022/11/07 05:24:06;;;;;;;;;;;;;;;13.92;78.29;100083.47;5103812;27;19920;-91
2022/11/07 05:26:32;;;;;;;;;;;;;;;13.92;78.10;100088.78;5109888;27;19916;-91
2022/11/07 05:28:57;;;;;;;;;;;;;;;13.79;78.39;100085.50;5101642;27;20445;-92
2022/11/07 05:31:22;;;;;;;;;;;;;;;13.59;78.97;100094.78;5093457;27;20423;-90
2022/11/07 05:33:48;;;;;;;;;;;;;;;13.54;79.14;100099.28;5097758;27;19943;-88
2022/11/07 05:36:14;;;;;;;;;;;;;;;13.57;78.89;100108.97;5099118;28;20442;-88
2022/11/07 05:38:40;;;;;;;;;;;;;;;13.59;79.24;100110.69;5104729;27;19919;-86
2022/11/07 05:41:06;;;;;;;;;;;;;;;13.61;78.59;100103.56;5096932;28;19919;-87
2022/11/07 05:43:31;;;;;;;;;;;;;;;13.46;79.82;100103.03;5086797;28;20461;-87
2022/11/07 05:46:00;;;;;;;;;;;;;;;13.58;79.22;100110.72;5088959;27;19907;-86
2022/11/07 05:48:26;;;;;;;;;;;;;;;13.65;78.87;100120.25;5104917;28;19915;-85
2022/11/07 05:50:51;;;;;;;;;;;;;;;13.67;79.25;100125.53;5095783;28;19927;-87
2022/11/07 05:53:16;;;;;;;;;;;;;;;13.78;79.54;100123.56;5095401;28;19911;-87
2022/11/07 05:55:42;;;;;;;;;;;;;;;13.85;79.30;100125.16;5107390;28;19954;-87
2022/11/07 05:58:10;;;;;;;;;;;;;;;13.89;78.54;100125.97;5091723;28;19927;-86
2022/11/07 06:00:35;;;;;;;;;;;;;;;13.89;78.69;100131.28;5100627;28;19924;-86
2022/11/07 06:03:01;;;;;;;;;;;;;;;13.99;78.74;100134.59;5088762;28;19919;-88
2022/11/07 06:05:27;;;;;;;;;;;;;;;14.08;78.62;100145.00;5087109;28;20030;-87
2022/11/07 06:07:52;;;;;;;;;;;;;;;14.11;78.35;100151.09;5101435;28;19926;-90
2022/11/07 06:10:18;;;;;;;;;;;;;;;14.24;76.98;100154.38;5086854;28;19920;-88
2022/11/07 06:12:43;;;;;;;;;;;;;;;14.34;77.39;100152.38;5100522;28;19927;-89
2022/11/07 06:15:09;;;;;;;;;;;;;;;14.45;76.89;100162.72;5088707;28;20446;-88
2022/11/07 06:17:34;;;;;;;;;;;;;;;14.37;77.16;100162.91;5101620;28;19912;-89
2022/11/07 06:20:00;;;;;;;;;;;;;;;14.27;77.74;100167.56;5099493;28;20663;-89
2022/11/07 06:22:25;;;;;;;;;;;;;;;14.20;78.19;100173.03;5096546;28;19981;-88
2022/11/07 06:24:51;;;;;;;;;;;;;;;14.37;78.24;100173.53;5098026;28;19939;-89
2022/11/07 06:27:16;;;;;;;;;;;;;;;14.67;76.91;100181.69;5095491;28;20030;-89
2022/11/07 06:29:41;;;;;;;;;;;;;;;14.81;76.55;100181.38;5087720;28;19923;-88
2022/11/07 06:32:06;;;;;;;;;;;;;;;14.96;75.95;100188.09;5087181;28;20423;-86
2022/11/07 06:34:32;;;;;;;;;;;;;;;14.82;76.08;100183.97;5087736;28;19919;-86
2022/11/07 06:36:57;;;;;;;;;;;;;;;15.09;75.41;100178.00;5091780;28;19923;-84
2022/11/07 06:39:22;;;;;;;;;;;;;;;15.16;74.89;100188.44;5099112;28;19939;-84
2022/11/07 06:41:48;;;;;;;;;;;;;;;15.31;74.60;100203.13;5101089;28;19963;-85
2022/11/07 06:44:13;;;;;;;;;;;;;;;15.37;74.54;100194.13;5103539;28;20420;-85
2022/11/07 06:46:39;;;;;;;;;;;;;;;15.44;74.38;100203.66;5083140;28;19969;-87
2022/11/07 06:49:04;;;;;;;;;;;;;;;15.62;74.06;100209.41;5087787;28;19916;-87
2022/11/07 06:51:30;;;;;;;;;;;;;;;15.64;74.41;100205.78;5095962;28;20293;-85
2022/11/07 06:53:56;;;;;;;;;;;;;;;15.85;73.86;100211.41;5086130;28;19923;-84
2022/11/07 06:56:22;;;;;;;;;;;;;;;15.96;73.72;100208.44;5085768;28;20529;-84
2022/11/07 06:58:47;;;;;;;;;;;;;;;16.15;72.91;100211.47;5083715;28;19912;-84
2022/11/07 07:01:13;;;;;;;;;;;;;;;16.14;72.58;100212.38;5085327;28;19916;-83
2022/11/07 07:03:39;;;;;;;;;;;;;;;16.19;71.32;100214.00;5086441;28;19916;-85
2022/11/07 07:06:06;;;;;;;;;;;;;;;16.13;70.20;100222.16;5085385;28;19918;-84
2022/11/07 07:08:32;;;;;;;;;;;;;;;16.27;70.15;100214.63;5086207;28;20007;-86
2022/11/07 07:11:01;;;;;;;;;;;;;;;16.19;69.17;100214.00;5088790;28;19999;-87
2022/11/07 07:13:26;;;;;;;;;;;;;;;16.37;67.21;100220.53;5089642;28;19912;-86
2022/11/07 07:15:53;;;;;;;;;;;;;;;16.18;66.33;100220.22;5089143;28;20400;-86
2022/11/07 07:18:18;;;;;;;;;;;;;;;16.26;66.52;100212.88;5089662;28;19924;-85
2022/11/07 07:20:44;;;;;;;;;;;;;;;16.31;65.51;100225.19;5089643;28;19922;-84
2022/11/07 07:23:09;;;;;;;;;;;;;;;16.24;64.83;100216.53;5089509;28;20378;-84
2022/11/07 07:25:34;;;;;;;;;;;;;;;16.29;64.66;100215.44;5089282;28;19923;-85
2022/11/07 07:28:00;;;;;;;;;;;;;;;16.30;64.95;100213.66;5089802;28;19934;-83
2022/11/07 07:30:25;;;;;;;;;;;;;;;16.33;64.78;100218.00;5089811;28;20400;-84
2022/11/07 07:32:50;;;;;;;;;;;;;;;16.40;64.09;100207.13;5089705;28;19915;-85
2022/11/07 07:35:16;;;;;;;;;;;;;;;16.54;63.84;100204.03;5089025;28;19915;-85
2022/11/07 07:37:42;;;;;;;;;;;;;;;16.45;63.21;100204.31;5089466;28;20355;-84
2022/11/07 07:40:07;;;;;;;;;;;;;;;16.33;63.20;100213.56;5089479;28;19947;-86
2022/11/07 07:42:33;;;;;;;;;;;;;;;16.45;62.91;100206.97;5089257;28;19915;-85
2022/11/07 07:44:58;;;;;;;;;;;;;;;16.62;63.29;100198.47;5089621;28;19916;-85
2022/11/07 07:47:23;;;;;;;;;;;;;;;16.88;62.15;100207.44;5087588;28;19912;-85
2022/11/07 07:49:49;;;;;;;;;;;;;;;17.09;61.23;100208.53;5087931;28;19926;-84
2022/11/07 07:52:14;;;;;;;;;;;;;;;17.24;61.58;100210.69;5089942;28;19923;-86
2022/11/07 07:54:39;;;;;;;;;;;;;;;17.00;61.29;100212.38;5089609;28;19990;-84
2022/11/07 07:57:04;;;;;;;;;;;;;;;17.03;61.30;100208.75;5089807;28;19916;-86
2022/11/07 07:59:30;;;;;;;;;;;;;;;16.94;61.21;100208.09;5089553;28;19912;-84
2022/11/07 08:01:55;;;;;;;;;;;;;;;16.96;61.14;100208.06;5089684;28;19939;-84
2022/11/07 08:04:20;;;;;;;;;;;;;;;16.84;61.25;100209.31;5089523;28;19919;-84
2022/11/07 08:06:46;;;;;;;;;;;;;;;16.82;61.48;100203.16;5088735;28;20402;-85
2022/11/07 08:09:11;;;;;;;;;;;;;;;16.96;61.38;100208.94;5089395;28;20382;-84
2022/11/07 08:11:36;;;;;;;;;;;;;;;17.28;60.71;100204.28;5088927;28;20481;-84
2022/11/07 08:14:03;;;;;;;;;;;;;;;17.27;59.90;100207.00;5087952;28;19916;-85
2022/11/07 08:16:28;;;;;;;;;;;;;;;17.51;59.24;100202.63;5087544;28;19916;-85
2022/11/07 08:18:54;;;;;;;;;;;;;;;17.69;58.54;100204.63;5088789;28;20321;-84
2022/11/07 08:21:20;;;;;;;;;;;;;;;17.61;58.52;100204.06;5089448;28;20287;-84
2022/11/07 08:23:48;;;;;;;;;;;;;;;17.66;58.68;100206.56;5088287;28;19912;-82
2022/11/07 08:26:13;;;;;;;;;;;;;;;17.89;58.01;100195.06;5088543;28;19916;-83
2022/11/07 08:28:38;;;;;;;;;;;;;;;17.89;57.64;100195.94;5088335;28;20363;-84
2022/11/07 08:31:05;;;;;;;;;;;;;;;17.99;58.11;100196.44;5087219;28;20775;-83
2022/11/07 08:33:31;;;;;;;;;;;;;;;18.06;57.74;100202.44;5088208;28;19916;-84
2022/11/07 08:35:59;;;;;;;;;;;;;;;17.80;57.73;100201.56;5088484;28;20367;-84
2022/11/07 08:38:24;;;;;;;;;;;;;;;17.82;57.27;100201.50;5087811;28;19916;-84
2022/11/07 08:40:50;;;;;;;;;;;;;;;18.15;57.18;100199.44;5088329;28;20728;-83
2022/11/07 08:43:16;;;;;;;;;;;;;;;18.17;56.97;100207.38;5087574;28;19916;-83
2022/11/07 08:45:42;;;;;;;;;;;;;;;18.15;56.90;100207.44;5087443;28;19935;-84
2022/11/07 08:48:08;;;;;;;;;;;;;;;18.17;56.53;100200.22;5087950;28;20294;-84
2022/11/07 08:50:33;;;;;;;;;;;;;;;18.40;56.07;100214.50;5087727;28;20373;-84
2022/11/07 08:52:59;;;;;;;;;;;;;;;18.28;56.27;100213.16;5087609;28;19920;-84
2022/11/07 08:55:24;;;;;;;;;;;;;;;18.30;55.45;100213.97;5087697;28;19922;-83
2022/11/07 08:57:50;;;;;;;;;;;;;;;18.32;54.87;100208.56;5088003;28;19920;-83
2022/11/07 09:00:15;;;;;;;;;;;;;;;18.55;54.71;100210.31;5087321;28;19916;-84
2022/11/07 09:02:41;;;;;;;;;;;;;;;18.38;55.16;100216.34;5086073;28;20340;-84
2022/11/07 09:05:07;;;;;;;;;;;;;;;18.24;55.06;100208.84;5087657;28;19920;-83
2022/11/07 09:07:36;;;;;;;;;;;;;;;18.39;55.35;100212.75;5087227;28;19916;-84
2022/11/07 09:10:01;;;;;;;;;;;;;;;18.63;54.51;100212.69;5085800;28;19946;-84
2022/11/07 09:12:26;;;;;;;;;;;;;;;18.61;54.51;100212.75;5087498;28;19908;-83
2022/11/07 09:14:51;;;;;;;;;;;;;;;18.74;53.65;100219.34;5087231;28;19916;-84
2022/11/07 09:17:17;;;;;;;;;;;;;;;18.57;54.07;100213.81;5087331;28;19915;-84
2022/11/07 09:19:42;;;;;;;;;;;;;;;18.68;54.24;100214.25;5085550;28;20317;-84
2022/11/07 09:22:07;;;;;;;;;;;;;;;18.83;53.49;100206.53;5087233;28;19916;-83
2022/11/07 09:24:33;;;;;;;;;;;;;;;18.67;53.83;100219.66;5085243;28;19962;-84
2022/11/07 09:26:58;;;;;;;;;;;;;;;18.94;53.45;100215.03;5086786;28;19923;-83
2022/11/07 09:29:23;;;;;;;;;;;;;;;19.02;53.10;100214.72;5086911;28;19951;-84
2022/11/07 09:31:49;;;;;;;;;;;;;;;19.05;53.32;100210.09;5086294;28;20026;-83
2022/11/07 09:34:14;;;;;;;;;;;;;;;19.08;52.71;100209.13;5086717;28;20313;-85
2022/11/07 09:36:39;;;;;;;;;;;;;;;18.78;53.63;100201.38;5087332;28;19946;-85
2022/11/07 09:39:05;;;;;;;;;;;;;;;18.89;52.98;100204.53;5087524;28;20370;-84
2022/11/07 09:41:40;;;;;;;;;;;;;;;19.24;52.07;100193.28;5087115;28;20461;-84
2022/11/07 09:44:14;;;;;;;;;;;;;;;19.00;52.65;100198.75;5086798;28;19916;-85
2022/11/07 09:46:39;;;;;;;;;;;;;;;19.07;52.83;100194.84;5087227;28;19919;-85
2022/11/07 09:49:11;;;;;;;;;;;;;;;19.21;52.29;100201.44;5087254;28;20313;-84
2022/11/07 09:51:41;;;;;;;;;;;;;;;19.16;52.61;100188.25;5087366;28;19912;-83
2022/11/07 09:54:19;;;;;;;;;;;;;;;19.20;51.87;100186.31;5087548;28;19912;-83
2022/11/07 09:56:45;;;;;;;;;;;;;;;19.12;51.78;100181.28;5087209;28;20032;-84
2022/11/07 09:59:22;;;;;;;;;;;;;;;19.30;51.77;100182.31;5089705;28;19916;-83
2022/11/07 10:01:47;;;;;;;;;;;;;;;19.37;51.49;100181.13;5090224;28;20370;-85
2022/11/07 10:04:15;;;;;;;;;;;;;;;19.68;50.87;100183.31;5088809;28;20010;-84
2022/11/07 10:06:51;;;;;;;;;;;;;;;19.16;51.53;100176.72;5095867;28;19920;-83
2022/11/07 10:09:24;;;;;;;;;;;;;;;18.97;52.16;100182.84;5123970;27;19912;-87
2022/11/07 10:12:12;;;;;;;;;;;;;;;19.25;51.53;100173.63;5133767;28;19912;-88
2022/11/07 10:14:47;;;;;;;;;;;;;;;19.52;50.77;100168.00;5071770;28;19974;-86
2022/11/07 10:17:15;;;;;;;;;;;;;;;19.71;50.46;100171.59;5086378;28;19916;-86
2022/11/07 10:19:47;;;;;;;;;;;;;;;19.61;50.27;100170.25;5087590;28;19911;-86
2022/11/07 10:22:19;;;;;;;;;;;;;;;19.58;50.63;100171.25;5084919;28;19969;-85
2022/11/07 10:24:47;;;;;;;;;;;;;;;19.63;50.67;100166.59;5084059;28;19916;-85
2022/11/07 10:27:12;;;;;;;;;;;;;;;19.38;51.20;100168.59;5089212;28;19920;-86
2022/11/07 10:29:49;;;;;;;;;;;;;;;19.40;51.30;100159.59;5106648;28;19920;-89
2022/11/07 10:32:21;;;;;;;;;;;;;;;19.10;51.38;100162.66;5093894;28;19977;-88
2022/11/07 10:34:52;;;;;;;;;;;;;;;19.05;52.34;100163.78;5103666;28;20388;-88
2022/11/07 10:37:17;;;;;;;;;;;;;;;19.39;51.28;100155.16;5104838;28;20393;-84
2022/11/07 10:39:42;;;;;;;;;;;;;;;19.56;50.90;100150.88;5116683;28;19927;-85
2022/11/07 10:42:20;;;;;;;;;;;;;;;19.59;51.07;100153.41;5101958;28;19965;-85
2022/11/07 10:44:45;;;;;;;;;;;;;;;19.53;50.52;100145.66;5104509;28;19923;-83
2022/11/07 10:47:15;;;;;;;;;;;;;;;19.70;50.35;100136.88;5107595;27;19923;-82
2022/11/07 10:49:41;;;;;;;;;;;;;;;19.58;50.81;100138.28;5111015;27;20050;-85
2022/11/07 10:52:08;;;;;;;;;;;;;;;19.79;50.25;100129.31;5109355;28;20426;-85
2022/11/07 10:54:34;;;;;;;;;;;;;;;19.75;49.88;100133.03;5110096;28;19923;-85
2022/11/07 10:57:08;;;;;;;;;;;;;;;19.62;50.42;100129.19;5109744;28;19919;-83
2022/11/07 10:59:34;;;;;;;;;;;;;;;19.73;50.35;100121.53;5110148;28;19916;-83
2022/11/07 11:02:00;;;;;;;;;;;;;;;19.90;49.66;100122.59;5110126;28;19958;-82
2022/11/07 11:04:27;;;;;;;;;;;;;;;19.89;49.58;100111.00;5110218;28;20008;-85
2022/11/07 11:07:05;;;;;;;;;;;;;;;19.78;49.74;100110.66;5109832;28;19920;-84
2022/11/07 11:09:33;;;;;;;;;;;;;;;19.99;48.94;100100.75;5110316;28;19915;-83
2022/11/07 11:12:11;;;;;;;;;;;;;;;19.88;49.57;100100.38;5109793;28;19918;-84
2022/11/07 11:14:38;;;;;;;;;;;;;;;19.98;49.64;100097.19;5110384;28;19911;-83
2022/11/07 11:17:04;;;;;;;;;;;;;;;20.08;48.97;100084.25;5109558;28;19923;-83
2022/11/07 11:19:32;;;;;;;;;;;;;;;20.10;50.09;100085.03;5109368;28;19911;-83
2022/11/07 11:21:58;;;;;;;;;;;;;;;20.13;48.51;100090.25;5109146;28;20029;-83
2022/11/07 11:24:29;;;;;;;;;;;;;;;19.72;49.55;100082.31;5109564;27;20003;-82
2022/11/07 11:26:58;;;;;;;;;;;;;;;19.76;49.74;100086.59;5109279;28;20355;-83
2022/11/07 11:29:23;;;;;;;;;;;;;;;19.74;49.99;100083.13;5109341;28;20306;-84
2022/11/07 11:31:50;;;;;;;;;;;;;;;20.15;49.73;100084.81;5108842;28;19923;-84
2022/11/07 11:34:15;;;;;;;;;;;;;;;20.34;48.68;100085.66;5110001;28;19953;-83
2022/11/07 11:36:44;;;;;;;;;;;;;;;20.00;49.01;100073.91;5108037;28;20312;-83
2022/11/07 11:39:28;;;;;;;;;;;;;;;19.93;49.57;100072.44;5110007;28;19916;-82
2022/11/07 11:41:57;;;;;;;;;;;;;;;19.95;49.70;100069.69;5109441;28;20377;-83
2022/11/07 11:44:44;;;;;;;;;;;;;;;19.95;50.15;100067.03;5109673;28;19993;-82
2022/11/07 11:50:12;;;;;;;;;;;;;;;20.06;48.81;100067.38;5112747;28;19968;-83
2022/11/07 11:52:37;;;;;;;;;;;;;;;19.82;49.73;100058.72;5111196;28;19916;-84
2022/11/07 11:55:06;;;;;;;;;;;;;;;19.81;49.71;100062.31;5108297;28;20365;-83
2022/11/07 11:57:35;;;;;;;;;;;;;;;19.76;49.74;100065.19;5109365;28;19922;-82
2022/11/07 12:00:03;;;;;;;;;;;;;;;19.66;49.67;100061.19;5109515;28;20358;-82
2022/11/07 12:02:32;;;;;;;;;;;;;;;19.55;50.29;100055.50;5109066;27;19915;-82
2022/11/07 12:05:00;;;;;;;;;;;;;;;19.65;50.49;100057.66;5110400;28;19915;-82
2022/11/07 12:07:31;;;;;;;;;;;;;;;19.49;50.59;100056.63;5109016;28;19919;-82
2022/11/07 12:10:10;;;;;;;;;;;;;;;19.58;49.91;100050.84;5109667;28;19915;-83
2022/11/07 12:12:36;;;;;;;;;;;;;;;19.62;50.03;100060.47;5109514;28;19915;-82
2022/11/07 12:15:04;;;;;;;;;;;;;;;19.38;50.63;100057.13;5109202;28;19937;-82
2022/11/07 12:17:40;;;;;;;;;;;;;;;19.74;49.80;100058.16;5109845;28;20663;-83
2022/11/07 12:20:26;;;;;;;;;;;;;;;19.94;48.96;100055.47;5109493;28;20002;-82
2022/11/07 12:23:04;;;;;;;;;;;;;;;20.18;48.89;100063.22;5109238;28;19918;-82
2022/11/07 12:25:30;;;;;;;;;;;;;;;20.26;48.26;100061.03;5108637;28;20037;-81
2022/11/07 12:27:55;;;;;;;;;;;;;;;20.31;47.83;100059.00;5108865;28;20673;-83
2022/11/07 12:30:26;;;;;;;;;;;;;;;19.94;48.48;100059.94;5108416;28;19915;-82
2022/11/07 12:33:00;;;;;;;;;;;;;;;19.90;48.56;100059.22;5109138;28;19919;-82
2022/11/07 12:35:28;;;;;;;;;;;;;;;19.57;49.56;100050.94;5108061;28;19971;-83
2022/11/07 12:37:59;;;;;;;;;;;;;;;19.73;49.18;100053.78;5108987;28;19911;-83
2022/11/07 12:40:30;;;;;;;;;;;;;;;19.68;49.50;100051.31;5107998;28;19911;-84
2022/11/07 12:42:56;;;;;;;;;;;;;;;19.81;48.83;100055.16;5108552;28;20014;-83
2022/11/07 12:45:21;;;;;;;;;;;;;;;19.88;48.61;100055.75;5108193;28;19998;-82